createdAt,value
2022-08-10T00:01:01.970Z,7.60
2022-08-10T00:03:36.266Z,7.70
2022-08-10T00:08:37.340Z,7.60
2022-08-10T00:11:15.389Z,8.20
2022-08-10T00:13:46.311Z,8.60
2022-08-10T00:16:19.116Z,9.10
2022-08-10T00:18:49.980Z,9.10
2022-08-10T00:21:19.110Z,8.30
2022-08-10T00:23:50.653Z,10.00
2022-08-10T00:26:19.508Z,8.50
2022-08-10T00:28:53.305Z,9.10
2022-08-10T00:31:24.105Z,8.40
2022-08-10T00:33:53.048Z,9.40
2022-08-10T00:36:22.107Z,9.90
2022-08-10T00:38:51.079Z,8.50
2022-08-10T00:41:21.360Z,9.80
2022-08-10T00:43:59.799Z,9.60
2022-08-10T00:46:28.975Z,9.20
2022-08-10T00:49:00.765Z,8.90
2022-08-10T00:51:43.212Z,9.20
2022-08-10T00:54:24.181Z,8.60
2022-08-10T00:57:16.514Z,10.20
2022-08-10T00:59:58.874Z,9.70
2022-08-10T01:02:35.155Z,9.70
2022-08-10T01:05:10.407Z,9.50
2022-08-10T01:07:56.288Z,9.10
2022-08-10T01:10:34.058Z,8.60
2022-08-10T01:13:35.045Z,8.90
2022-08-10T01:19:55.099Z,7.90
2022-08-10T01:22:48.802Z,8.60
2022-08-10T01:26:10.591Z,8.70
2022-08-10T01:29:00.077Z,9.00
2022-08-10T01:31:38.396Z,8.90
2022-08-10T01:34:18.690Z,8.90
2022-08-10T01:36:55.838Z,8.50
2022-08-10T01:39:38.204Z,8.80
2022-08-10T01:42:11.085Z,9.10
2022-08-10T01:44:46.266Z,9.90
2022-08-10T01:47:37.832Z,9.20
2022-08-10T01:50:59.118Z,9.80
2022-08-10T01:53:41.533Z,9.40
2022-08-10T01:56:16.573Z,9.20
2022-08-10T01:59:08.057Z,9.00
2022-08-10T02:01:50.198Z,9.30
2022-08-10T02:04:26.669Z,9.20
2022-08-10T02:07:03.491Z,9.00
2022-08-10T02:09:43.725Z,9.70
2022-08-10T02:12:19.559Z,9.90
2022-08-10T02:14:57.494Z,9.50
2022-08-10T02:17:57.849Z,9.90
2022-08-10T02:20:43.949Z,9.80
2022-08-10T02:23:39.953Z,8.60
2022-08-10T02:26:14.737Z,10.30
2022-08-10T02:28:47.569Z,11.90
2022-08-10T02:31:25.652Z,9.90
2022-08-10T02:33:59.345Z,10.80
2022-08-10T02:36:35.582Z,9.90
2022-08-10T02:39:10.179Z,10.80
2022-08-10T02:45:01.397Z,9.70
2022-08-10T02:45:31.001Z,9.40
2022-08-10T02:48:07.589Z,10.30
2022-08-10T02:50:40.784Z,9.80
2022-08-10T02:53:54.956Z,9.60
2022-08-10T02:56:46.612Z,10.70
2022-08-10T02:59:23.826Z,10.00
2022-08-10T03:01:58.521Z,10.40
2022-08-10T03:04:55.278Z,9.80
2022-08-10T03:07:43.819Z,10.70
2022-08-10T03:10:23.694Z,14.20
2022-08-10T03:13:05.464Z,12.40
2022-08-10T03:15:41.282Z,11.30
2022-08-10T03:18:12.293Z,11.20
2022-08-10T03:20:45.001Z,10.30
2022-08-10T03:23:18.699Z,11.40
2022-08-10T03:25:54.648Z,10.90
2022-08-10T03:28:29.173Z,12.10
2022-08-10T03:31:02.794Z,13.40
2022-08-10T03:33:37.438Z,11.40
2022-08-10T03:36:43.211Z,13.50
2022-08-10T03:39:02.002Z,14.40
2022-08-10T03:41:53.337Z,14.80
2022-08-10T03:47:01.769Z,14.40
2022-08-10T03:49:33.853Z,15.60
2022-08-10T03:52:03.500Z,13.90
2022-08-10T03:54:39.749Z,12.60
2022-08-10T03:57:13.706Z,12.10
2022-08-10T03:59:42.824Z,11.50
2022-08-10T04:02:42.192Z,10.50
2022-08-10T04:05:01.215Z,11.70
2022-08-10T04:07:32.384Z,12.10
2022-08-10T04:10:01.579Z,10.80
2022-08-10T04:12:32.613Z,10.30
2022-08-10T04:15:02.011Z,14.60
2022-08-10T04:18:02.830Z,13.50
2022-08-10T04:20:37.237Z,12.20
2022-08-10T04:23:14.212Z,11.80
2022-08-10T04:25:43.236Z,13.00
2022-08-10T04:28:14.851Z,12.30
2022-08-10T04:30:55.582Z,12.70
2022-08-10T04:33:32.802Z,12.10
2022-08-10T04:36:05.673Z,12.40
2022-08-10T04:38:36.994Z,21.60
2022-08-10T04:41:13.116Z,13.80
2022-08-10T04:43:45.312Z,14.60
2022-08-10T04:46:55.347Z,13.30
2022-08-10T04:49:40.332Z,11.80
2022-08-10T04:51:59.586Z,11.30
2022-08-10T04:54:29.925Z,11.80
2022-08-10T04:56:59.099Z,11.80
2022-08-10T04:59:28.136Z,12.10
2022-08-10T05:02:28.835Z,12.30
2022-08-10T05:04:46.290Z,13.20
2022-08-10T05:07:18.404Z,12.70
2022-08-10T05:10:01.453Z,17.20
2022-08-10T05:12:39.661Z,14.40
2022-08-10T05:15:13.679Z,14.20
2022-08-10T05:18:09.612Z,13.80
2022-08-10T05:20:35.779Z,14.00
2022-08-10T05:23:07.310Z,11.00
2022-08-10T05:25:38.205Z,14.00
2022-08-10T05:28:07.429Z,10.70
2022-08-10T05:30:36.437Z,13.00
2022-08-10T05:33:08.789Z,11.70
2022-08-10T05:35:55.187Z,8.90
2022-08-10T05:38:31.817Z,10.60
2022-08-10T05:41:01.242Z,9.00
2022-08-10T05:43:30.435Z,8.60
2022-08-10T05:46:17.246Z,8.40
2022-08-10T05:48:58.084Z,8.40
2022-08-10T05:51:33.245Z,9.00
2022-08-10T05:54:06.759Z,9.00
2022-08-10T05:56:56.380Z,7.20
2022-08-10T06:00:33.033Z,7.10
2022-08-10T06:02:45.422Z,7.50
2022-08-10T06:05:26.498Z,6.70
2022-08-10T06:07:56.215Z,7.00
2022-08-10T06:10:31.272Z,8.00
2022-08-10T06:13:30.221Z,6.20
2022-08-10T06:16:07.479Z,5.60
2022-08-10T06:18:37.644Z,5.30
2022-08-10T06:21:09.774Z,5.00
2022-08-10T06:23:41.409Z,4.70
2022-08-10T06:26:14.685Z,4.70
2022-08-10T06:29:02.332Z,4.90
2022-08-10T06:31:49.037Z,4.90
2022-08-10T06:34:47.886Z,5.70
2022-08-10T06:37:28.980Z,4.50
2022-08-10T06:39:59.348Z,4.00
2022-08-10T06:42:41.390Z,4.20
2022-08-10T06:45:27.816Z,5.30
2022-08-10T06:48:05.372Z,5.10
2022-08-10T06:50:58.726Z,4.60
2022-08-10T06:53:53.147Z,5.10
2022-08-10T06:56:46.832Z,4.90
2022-08-10T06:59:40.776Z,5.30
2022-08-10T07:02:25.857Z,5.20
2022-08-10T07:05:05.328Z,4.70
2022-08-10T07:07:41.196Z,5.00
2022-08-10T07:10:11.909Z,4.50
2022-08-10T07:12:44.446Z,4.60
2022-08-10T07:15:15.314Z,4.00
2022-08-10T07:17:47.986Z,4.50
2022-08-10T07:20:22.391Z,4.20
2022-08-10T07:23:08.154Z,3.90
2022-08-10T07:25:47.895Z,3.80
2022-08-10T07:30:51.744Z,4.10
2022-08-10T07:33:24.973Z,3.10
2022-08-10T07:36:06.684Z,3.30
2022-08-10T07:38:37.757Z,3.20
2022-08-10T07:41:23.423Z,3.40
2022-08-10T07:44:04.451Z,3.90
2022-08-10T07:46:43.820Z,3.00
2022-08-10T07:49:26.119Z,2.80
2022-08-10T07:52:00.887Z,3.20
2022-08-10T07:54:47.545Z,2.50
2022-08-10T07:57:40.023Z,2.40
2022-08-10T08:00:31.682Z,2.10
2022-08-10T08:03:06.007Z,2.90
2022-08-10T08:06:03.350Z,2.60
2022-08-10T08:08:48.650Z,1.80
2022-08-10T08:11:27.085Z,1.60
2022-08-10T08:14:02.098Z,2.20
2022-08-10T08:16:33.411Z,1.80
2022-08-10T08:19:38.047Z,2.20
2022-08-10T08:24:11.224Z,1.40
2022-08-10T08:25:14.372Z,1.70
2022-08-10T08:27:50.969Z,1.90
2022-08-10T08:30:35.487Z,1.50
2022-08-10T08:33:19.797Z,1.90
2022-08-10T08:36:06.913Z,1.50
2022-08-10T08:38:42.460Z,1.50
2022-08-10T08:42:20.203Z,2.10
2022-08-10T08:45:29.821Z,1.40
2022-08-10T08:50:57.957Z,1.60
2022-08-10T08:54:04.396Z,1.20
2022-08-10T08:57:50.378Z,1.50
2022-08-10T09:00:51.146Z,1.30
2022-08-10T09:03:29.243Z,1.60
2022-08-10T09:06:34.696Z,1.80
2022-08-10T09:09:22.421Z,1.50
2022-08-10T09:12:38.917Z,1.20
2022-08-10T09:15:08.287Z,1.50
2022-08-10T09:18:06.927Z,1.50
2022-08-10T09:21:09.241Z,1.90
2022-08-10T09:24:20.166Z,1.80
2022-08-10T09:32:56.211Z,1.50
2022-08-10T09:40:12.214Z,1.70
2022-08-10T09:45:28.612Z,1.70
2022-08-10T09:48:20.775Z,1.20
2022-08-10T09:51:44.288Z,1.30
2022-08-10T09:54:38.028Z,1.10
2022-08-10T09:57:44.906Z,1.00
2022-08-10T10:00:23.702Z,1.10
2022-08-10T10:03:36.057Z,1.40
2022-08-10T10:07:04.279Z,1.10
2022-08-10T10:10:20.695Z,1.90
2022-08-10T10:16:11.135Z,1.60
2022-08-10T10:19:24.945Z,1.30
2022-08-10T10:21:59.876Z,1.20
2022-08-10T10:25:20.924Z,1.00
2022-08-10T10:29:11.389Z,1.30
2022-08-10T10:31:34.248Z,1.20
2022-08-10T10:34:25.705Z,1.30
2022-08-10T10:37:01.284Z,1.50
2022-08-10T10:39:36.984Z,1.40
2022-08-10T10:42:45.166Z,1.30
2022-08-10T10:45:53.444Z,1.20
2022-08-10T10:49:24.387Z,1.20
2022-08-10T10:52:20.452Z,1.80
2022-08-10T10:55:16.336Z,1.30
2022-08-10T10:58:42.902Z,1.50
2022-08-10T11:01:21.631Z,1.50
2022-08-10T11:04:27.511Z,1.70
2022-08-10T11:07:23.732Z,1.70
2022-08-10T11:10:31.479Z,1.10
2022-08-10T11:14:25.225Z,1.50
2022-08-10T11:16:47.486Z,1.50
2022-08-10T11:19:21.824Z,2.10
2022-08-10T11:22:23.229Z,1.40
2022-08-10T11:25:27.739Z,1.30
2022-08-10T11:28:34.131Z,1.40
2022-08-10T11:31:40.190Z,1.60
2022-08-10T11:34:47.116Z,2.70
2022-08-10T11:38:31.368Z,1.50
2022-08-10T11:42:05.469Z,2.10
2022-08-10T11:44:17.847Z,1.50
2022-08-10T11:47:20.472Z,1.50
2022-08-10T11:50:03.899Z,2.50
2022-08-10T11:53:05.775Z,1.50
2022-08-10T11:55:38.002Z,1.80
2022-08-10T11:58:32.599Z,1.30
2022-08-10T12:01:08.225Z,1.50
2022-08-10T12:03:44.285Z,1.50
2022-08-10T12:06:33.688Z,1.50
2022-08-10T12:10:05.550Z,1.50
2022-08-10T12:12:01.292Z,1.90
2022-08-10T12:14:41.283Z,1.20
2022-08-10T12:17:22.756Z,2.30
2022-08-10T12:20:25.013Z,1.80
2022-08-10T12:23:41.008Z,1.60
2022-08-10T12:26:27.108Z,1.60
2022-08-10T12:29:43.039Z,2.50
2022-08-10T12:32:27.429Z,2.20
2022-08-10T12:35:26.613Z,1.80
2022-08-10T12:38:29.859Z,2.30
2022-08-10T12:41:10.034Z,2.10
2022-08-10T12:44:22.769Z,2.20
2022-08-10T12:47:34.723Z,2.10
2022-08-10T12:50:39.416Z,1.70
2022-08-10T12:53:31.448Z,2.00
2022-08-10T12:56:02.474Z,1.80
2022-08-10T12:58:57.509Z,1.60
2022-08-10T13:02:09.684Z,4.40
2022-08-10T13:04:30.582Z,1.90
2022-08-10T13:07:02.313Z,2.80
2022-08-10T13:09:33.349Z,2.50
2022-08-10T13:12:35.231Z,1.60
2022-08-10T13:15:50.078Z,1.70
2022-08-10T13:18:46.164Z,2.80
2022-08-10T13:21:20.617Z,1.90
2022-08-10T13:24:11.328Z,1.50
2022-08-10T13:27:25.626Z,1.70
2022-08-10T13:30:03.893Z,1.80
2022-08-10T13:32:36.799Z,1.20
2022-08-10T13:35:12.463Z,2.20
2022-08-10T13:37:46.907Z,1.90
2022-08-10T13:40:20.638Z,2.60
2022-08-10T13:42:52.162Z,1.40
2022-08-10T13:45:25.139Z,1.50
2022-08-10T13:48:18.901Z,3.30
2022-08-10T13:50:52.291Z,2.20
2022-08-10T13:53:22.499Z,1.70
2022-08-10T13:55:57.929Z,1.80
2022-08-10T13:58:35.579Z,1.90
2022-08-10T14:01:15.505Z,2.30
2022-08-10T14:03:47.443Z,1.50
2022-08-10T14:06:18.655Z,1.70
2022-08-10T14:11:23.185Z,1.60
2022-08-10T14:16:30.751Z,1.50
2022-08-10T14:19:12.944Z,1.90
2022-08-10T14:21:43.384Z,2.20
2022-08-10T14:24:31.678Z,1.40
2022-08-10T14:27:10.738Z,1.00
2022-08-10T14:29:47.094Z,1.30
2022-08-10T14:32:21.905Z,1.40
2022-08-10T14:36:16.915Z,2.10
2022-08-10T14:37:54.896Z,1.70
2022-08-10T14:43:06.747Z,1.40
2022-08-10T14:45:39.219Z,1.80
2022-08-10T14:48:39.256Z,1.40
2022-08-10T14:51:21.123Z,1.40
2022-08-10T14:53:58.645Z,1.60
2022-08-10T14:56:32.875Z,1.70
2022-08-10T14:59:07.751Z,1.70
2022-08-10T15:02:00.109Z,1.30
2022-08-10T15:04:37.366Z,1.90
2022-08-10T15:07:17.818Z,1.70
2022-08-10T15:10:00.387Z,1.70
2022-08-10T15:12:39.080Z,2.10
2022-08-10T15:15:16.508Z,1.60
2022-08-10T15:17:53.153Z,1.80
2022-08-10T15:20:25.738Z,1.50
2022-08-10T15:23:08.269Z,1.80
2022-08-10T15:26:11.343Z,1.60
2022-08-10T15:29:23.608Z,1.70
2022-08-10T15:32:00.193Z,2.00
2022-08-10T15:34:49.021Z,1.40
2022-08-10T15:37:47.165Z,2.00
2022-08-10T15:40:25.615Z,1.90
2022-08-10T15:43:24.467Z,1.60
2022-08-10T15:46:18.109Z,2.20
2022-08-10T15:49:45.871Z,1.30
2022-08-10T15:52:39.815Z,1.80
2022-08-10T15:55:42.527Z,2.10
2022-08-10T15:58:39.329Z,1.80
2022-08-10T16:02:14.959Z,1.90
2022-08-10T16:04:19.628Z,2.00
2022-08-10T16:07:12.498Z,2.60
2022-08-10T16:10:24.092Z,1.90
2022-08-10T16:12:59.601Z,2.40
2022-08-10T16:15:32.139Z,2.40
2022-08-10T16:18:09.611Z,1.70
2022-08-10T16:20:55.106Z,1.90
2022-08-10T16:23:29.977Z,1.40
2022-08-10T16:26:14.508Z,1.70
2022-08-10T16:28:56.316Z,1.70
2022-08-10T16:31:30.946Z,1.50
2022-08-10T16:34:13.529Z,1.50
2022-08-10T16:36:50.169Z,1.70
2022-08-10T16:40:06.715Z,1.80
2022-08-10T16:42:44.987Z,1.30
2022-08-10T16:45:22.334Z,2.40
2022-08-10T16:47:56.135Z,2.20
2022-08-10T16:50:31.029Z,2.80
2022-08-10T16:53:02.658Z,2.20
2022-08-10T16:55:47.372Z,3.40
2022-08-10T16:58:31.676Z,2.70
2022-08-10T17:01:10.699Z,1.90
2022-08-10T17:04:06.325Z,2.40
2022-08-10T17:06:52.573Z,2.70
2022-08-10T17:09:35.524Z,2.50
2022-08-10T17:12:13.439Z,2.70
2022-08-10T17:14:44.376Z,2.20
2022-08-10T17:17:26.304Z,2.70
2022-08-10T17:20:30.220Z,2.60
2022-08-10T17:22:57.484Z,2.50
2022-08-10T17:25:48.494Z,2.30
2022-08-10T17:28:34.736Z,1.90
2022-08-10T17:31:23.926Z,3.20
2022-08-10T17:34:17.754Z,2.30
2022-08-10T17:36:53.921Z,2.60
2022-08-10T17:39:41.307Z,2.10
2022-08-10T17:42:12.339Z,3.00
2022-08-10T17:44:43.905Z,2.60
2022-08-10T17:47:13.753Z,2.90
2022-08-10T17:49:45.115Z,3.40
2022-08-10T17:54:56.926Z,3.00
2022-08-10T17:57:28.377Z,2.80
2022-08-10T18:00:03.308Z,2.80
2022-08-10T18:02:39.544Z,2.80
2022-08-10T18:05:13.450Z,2.90
2022-08-10T18:07:51.734Z,3.20
2022-08-10T18:10:22.514Z,3.60
2022-08-10T18:12:56.625Z,4.10
2022-08-10T18:15:29.278Z,4.80
2022-08-10T18:18:03.578Z,4.60
2022-08-10T18:20:39.121Z,4.60
2022-08-10T18:23:10.539Z,4.60
2022-08-10T18:28:20.113Z,4.30
2022-08-10T18:30:56.073Z,5.70
2022-08-10T18:33:42.454Z,5.30
2022-08-10T18:36:13.282Z,4.20
2022-08-10T18:38:50.217Z,4.50
2022-08-10T18:41:32.044Z,4.60
2022-08-10T18:44:50.699Z,4.90
2022-08-10T18:47:40.882Z,3.90
2022-08-10T18:50:44.132Z,4.10
2022-08-10T18:53:22.827Z,4.10
2022-08-10T18:56:09.059Z,4.90
2022-08-10T18:59:07.584Z,6.40
2022-08-10T19:02:34.922Z,6.50
2022-08-10T19:05:30.191Z,9.10
2022-08-10T19:08:29.904Z,7.90
2022-08-10T19:11:19.566Z,6.40
2022-08-10T19:14:13.263Z,6.00
2022-08-10T19:17:06.138Z,5.40
2022-08-10T19:20:19.184Z,6.40
2022-08-10T19:23:28.327Z,7.20
2022-08-10T19:26:45.796Z,6.70
2022-08-10T19:30:09.983Z,7.40
2022-08-10T19:33:03.083Z,9.70
2022-08-10T19:36:02.913Z,8.90
2022-08-10T19:39:02.165Z,9.20
2022-08-10T19:41:44.837Z,7.90
2022-08-10T19:44:43.326Z,8.90
2022-08-10T19:47:44.229Z,8.40
2022-08-10T19:50:33.473Z,8.90
2022-08-10T19:53:37.913Z,9.40
2022-08-10T19:56:36.221Z,11.00
2022-08-10T19:59:08.378Z,11.10
2022-08-10T20:01:55.156Z,11.00
2022-08-10T20:04:36.313Z,12.90
2022-08-10T20:07:51.553Z,14.10
2022-08-10T20:10:50.035Z,11.90
2022-08-10T20:13:46.934Z,10.20
2022-08-10T20:16:34.924Z,10.90
2022-08-10T20:19:20.947Z,12.50
2022-08-10T20:22:10.077Z,12.40
2022-08-10T20:25:03.100Z,13.80
2022-08-10T20:27:59.467Z,18.00
2022-08-10T20:30:39.932Z,17.70
2022-08-10T20:33:41.322Z,20.90
2022-08-10T20:36:34.376Z,18.30
2022-08-10T20:39:28.462Z,18.40
2022-08-10T20:42:06.728Z,17.60
2022-08-10T20:45:04.761Z,16.80
2022-08-10T20:47:55.256Z,16.90
2022-08-10T20:50:56.825Z,20.60
2022-08-10T20:53:32.157Z,26.10
2022-08-10T20:56:55.948Z,20.60
2022-08-10T21:00:04.660Z,14.60
2022-08-10T21:02:55.504Z,10.70
2022-08-10T21:05:53.912Z,20.80
2022-08-10T21:08:51.980Z,12.30
2022-08-10T21:11:33.333Z,10.80
2022-08-10T21:14:54.418Z,11.60
2022-08-10T21:17:41.955Z,11.30
2022-08-10T21:20:55.221Z,11.70
2022-08-10T21:23:32.984Z,10.90
2022-08-10T21:26:44.669Z,10.20
2022-08-10T21:30:11.223Z,12.70
2022-08-10T21:33:12.281Z,16.40
2022-08-10T21:36:06.307Z,10.10
2022-08-10T21:38:51.663Z,8.80
2022-08-10T21:42:46.947Z,8.60
2022-08-10T21:46:05.442Z,10.20
2022-08-10T21:49:11.627Z,9.40
2022-08-10T21:52:40.999Z,13.80
2022-08-10T21:56:02.983Z,10.30
2022-08-10T21:59:08.381Z,11.70
2022-08-10T22:02:06.129Z,8.40
2022-08-10T22:04:53.811Z,9.60
2022-08-10T22:07:43.072Z,8.90
2022-08-10T22:10:33.575Z,9.00
2022-08-10T22:13:25.968Z,9.10
2022-08-10T22:16:18.315Z,8.50
2022-08-10T22:19:15.161Z,11.90
2022-08-10T22:22:28.256Z,11.00
2022-08-10T22:25:57.199Z,11.20
2022-08-10T22:28:48.829Z,10.20
2022-08-10T22:35:20.379Z,10.70
2022-08-10T22:38:23.817Z,9.90
2022-08-10T22:41:20.876Z,10.90
2022-08-10T22:44:11.027Z,12.30
2022-08-10T22:47:01.508Z,12.40
2022-08-10T22:49:30.999Z,12.00
2022-08-10T22:52:08.516Z,12.40
2022-08-10T22:55:27.714Z,11.40
2022-08-10T22:58:15.508Z,10.80
2022-08-10T23:01:12.307Z,10.30
2022-08-10T23:03:52.770Z,10.90
2022-08-10T23:06:28.285Z,11.10
2022-08-10T23:09:01.941Z,12.00
2022-08-10T23:11:38.292Z,11.90
2022-08-10T23:14:11.100Z,11.20
2022-08-10T23:17:08.061Z,11.90
2022-08-10T23:20:00.286Z,10.90
2022-08-10T23:22:41.276Z,10.40
2022-08-10T23:25:20.671Z,11.80
2022-08-10T23:27:58.600Z,12.70
2022-08-10T23:30:38.193Z,11.50
2022-08-10T23:33:16.408Z,12.40
2022-08-10T23:36:33.925Z,10.40
2022-08-10T23:39:26.892Z,10.90
2022-08-10T23:41:55.363Z,10.60
2022-08-10T23:44:30.161Z,10.70
2022-08-10T23:47:03.135Z,10.90
2022-08-10T23:49:37.582Z,10.80
2022-08-10T23:52:22.695Z,9.50
2022-08-10T23:55:02.255Z,8.90
2022-08-10T23:57:35.519Z,9.80
